< < Back
Terminal Aerodrome Forecast


Current Version              Previous Versions:   1  2  3  4  5  6  7  8  9  

Terminal Aerodrome Forecast

925
FTUS44 KBMX 232300
TAFTCL
TAF
KTCL 232330Z 2400/2424 VRB03KT P6SM SKC
     FM241600 18006KT P6SM SKC=



Latest METAR

447
SAUS70 KWBC 241000 RRC
MTRTCL
METAR KTCL 240953Z AUTO 00000KT 10SM CLR 10/08 A2996 RMK AO2 SLP142
T01000083


USA.gov is the U.S. government's official web portal to all federal, state and local government web resources and services.